sensor_id;sensor_type;location;lat;lon;timestamp;P1;durP1;ratioP1;P2;durP2;ratioP2
23496;SDS011;11925;48.122;11.560;2024-01-25T00:00:41;8.25;;;1.42;;
23496;SDS011;11925;48.122;11.560;2024-01-25T00:03:10;7.30;;;1.42;;
23496;SDS011;11925;48.122;11.560;2024-01-25T00:05:38;6.15;;;1.02;;
23496;SDS011;11925;48.122;11.560;2024-01-25T00:08:07;8.18;;;1.58;;
23496;SDS011;11925;48.122;11.560;2024-01-25T00:10:35;14.05;;;1.55;;
23496;SDS011;11925;48.122;11.560;2024-01-25T00:13:05;6.32;;;1.17;;
23496;SDS011;11925;48.122;11.560;2024-01-25T00:15:33;7.90;;;1.45;;
23496;SDS011;11925;48.122;11.560;2024-01-25T00:18:02;7.78;;;1.65;;
23496;SDS011;11925;48.122;11.560;2024-01-25T00:20:30;7.45;;;1.20;;
23496;SDS011;11925;48.122;11.560;2024-01-25T00:22:59;6.13;;;1.20;;
23496;SDS011;11925;48.122;11.560;2024-01-25T00:25:27;9.88;;;1.63;;
23496;SDS011;11925;48.122;11.560;2024-01-25T00:27:56;6.95;;;1.23;;
23496;SDS011;11925;48.122;11.560;2024-01-25T00:30:26;6.95;;;1.30;;
23496;SDS011;11925;48.122;11.560;2024-01-25T00:32:55;6.38;;;1.23;;
23496;SDS011;11925;48.122;11.560;2024-01-25T00:35:24;8.25;;;1.50;;
23496;SDS011;11925;48.122;11.560;2024-01-25T00:37:54;9.30;;;1.20;;
23496;SDS011;11925;48.122;11.560;2024-01-25T00:40:23;7.63;;;1.00;;
23496;SDS011;11925;48.122;11.560;2024-01-25T00:42:52;4.63;;;1.02;;
23496;SDS011;11925;48.122;11.560;2024-01-25T00:45:22;6.45;;;1.20;;
23496;SDS011;11925;48.122;11.560;2024-01-25T00:47:53;5.40;;;0.88;;
23496;SDS011;11925;48.122;11.560;2024-01-25T00:50:22;4.93;;;1.07;;
23496;SDS011;11925;48.122;11.560;2024-01-25T00:52:52;6.95;;;1.30;;
23496;SDS011;11925;48.122;11.560;2024-01-25T00:55:22;8.27;;;1.10;;
23496;SDS011;11925;48.122;11.560;2024-01-25T00:57:51;7.22;;;1.17;;
23496;SDS011;11925;48.122;11.560;2024-01-25T01:00:21;4.22;;;1.05;;
23496;SDS011;11925;48.122;11.560;2024-01-25T01:02:50;4.88;;;1.10;;
23496;SDS011;11925;48.122;11.560;2024-01-25T01:05:25;8.30;;;1.67;;
23496;SDS011;11925;48.122;11.560;2024-01-25T01:07:55;6.90;;;1.33;;
23496;SDS011;11925;48.122;11.560;2024-01-25T01:10:24;7.82;;;1.25;;
23496;SDS011;11925;48.122;11.560;2024-01-25T01:12:53;6.75;;;1.13;;
23496;SDS011;11925;48.122;11.560;2024-01-25T01:15:21;5.90;;;1.23;;
23496;SDS011;11925;48.122;11.560;2024-01-25T01:17:50;7.78;;;1.10;;
23496;SDS011;11925;48.122;11.560;2024-01-25T01:20:20;6.43;;;1.50;;
23496;SDS011;11925;48.122;11.560;2024-01-25T01:22:48;5.45;;;1.98;;
23496;SDS011;11925;48.122;11.560;2024-01-25T01:25:18;8.52;;;0.95;;
23496;SDS011;11925;48.122;11.560;2024-01-25T01:27:46;7.78;;;1.20;;
23496;SDS011;11925;48.122;11.560;2024-01-25T01:30:16;6.18;;;1.52;;
23496;SDS011;11925;48.122;11.560;2024-01-25T01:32:45;5.97;;;0.98;;
23496;SDS011;11925;48.122;11.560;2024-01-25T01:35:13;5.93;;;1.30;;
23496;SDS011;11925;48.122;11.560;2024-01-25T01:37:43;7.13;;;1.30;;
23496;SDS011;11925;48.122;11.560;2024-01-25T01:40:12;8.82;;;1.45;;
23496;SDS011;11925;48.122;11.560;2024-01-25T01:42:41;7.65;;;1.25;;
23496;SDS011;11925;48.122;11.560;2024-01-25T01:45:09;4.47;;;0.90;;
23496;SDS011;11925;48.122;11.560;2024-01-25T01:47:40;7.97;;;1.23;;
23496;SDS011;11925;48.122;11.560;2024-01-25T01:50:10;7.47;;;1.20;;
23496;SDS011;11925;48.122;11.560;2024-01-25T01:52:38;5.65;;;1.33;;
23496;SDS011;11925;48.122;11.560;2024-01-25T01:55:09;5.95;;;0.98;;
23496;SDS011;11925;48.122;11.560;2024-01-25T01:57:38;14.02;;;1.25;;
23496;SDS011;11925;48.122;11.560;2024-01-25T02:00:08;7.00;;;1.33;;
23496;SDS011;11925;48.122;11.560;2024-01-25T02:02:37;6.78;;;1.50;;
23496;SDS011;11925;48.122;11.560;2024-01-25T02:05:06;8.43;;;1.50;;
23496;SDS011;11925;48.122;11.560;2024-01-25T02:07:34;8.80;;;1.48;;
23496;SDS011;11925;48.122;11.560;2024-01-25T02:10:05;8.60;;;1.40;;
23496;SDS011;11925;48.122;11.560;2024-01-25T02:12:35;7.38;;;1.40;;
23496;SDS011;11925;48.122;11.560;2024-01-25T02:15:04;7.93;;;1.15;;
23496;SDS011;11925;48.122;11.560;2024-01-25T02:17:34;7.78;;;1.10;;
23496;SDS011;11925;48.122;11.560;2024-01-25T02:20:02;6.00;;;1.20;;
23496;SDS011;11925;48.122;11.560;2024-01-25T02:22:33;4.88;;;1.30;;
23496;SDS011;11925;48.122;11.560;2024-01-25T02:25:02;7.95;;;0.98;;
23496;SDS011;11925;48.122;11.560;2024-01-25T02:27:31;7.38;;;1.20;;
23496;SDS011;11925;48.122;11.560;2024-01-25T02:30:05;7.32;;;1.08;;
23496;SDS011;11925;48.122;11.560;2024-01-25T02:32:34;7.18;;;1.40;;
23496;SDS011;11925;48.122;11.560;2024-01-25T02:35:03;7.65;;;1.25;;
23496;SDS011;11925;48.122;11.560;2024-01-25T02:37:33;9.18;;;0.95;;
23496;SDS011;11925;48.122;11.560;2024-01-25T02:40:02;7.63;;;1.00;;
23496;SDS011;11925;48.122;11.560;2024-01-25T02:42:31;7.90;;;1.20;;
23496;SDS011;11925;48.122;11.560;2024-01-25T02:45:00;7.80;;;1.40;;
23496;SDS011;11925;48.122;11.560;2024-01-25T02:47:28;5.95;;;1.17;;
23496;SDS011;11925;48.122;11.560;2024-01-25T02:49:57;6.25;;;1.60;;
23496;SDS011;11925;48.122;11.560;2024-01-25T02:52:26;2.90;;;0.63;;
23496;SDS011;11925;48.122;11.560;2024-01-25T02:54:56;5.97;;;1.10;;
23496;SDS011;11925;48.122;11.560;2024-01-25T02:57:24;6.40;;;1.20;;
23496;SDS011;11925;48.122;11.560;2024-01-25T02:59:53;5.57;;;1.13;;
23496;SDS011;11925;48.122;11.560;2024-01-25T03:02:21;7.40;;;1.33;;
23496;SDS011;11925;48.122;11.560;2024-01-25T03:04:50;4.90;;;0.90;;
23496;SDS011;11925;48.122;11.560;2024-01-25T03:07:19;4.80;;;1.00;;
23496;SDS011;11925;48.122;11.560;2024-01-25T03:09:48;7.43;;;1.48;;
23496;SDS011;11925;48.122;11.560;2024-01-25T03:12:17;7.22;;;1.23;;
23496;SDS011;11925;48.122;11.560;2024-01-25T03:14:47;5.60;;;1.30;;
23496;SDS011;11925;48.122;11.560;2024-01-25T03:17:16;7.35;;;1.25;;
23496;SDS011;11925;48.122;11.560;2024-01-25T03:19:45;4.60;;;0.85;;
23496;SDS011;11925;48.122;11.560;2024-01-25T03:22:14;7.75;;;1.23;;
23496;SDS011;11925;48.122;11.560;2024-01-25T03:24:43;7.07;;;0.82;;
23496;SDS011;11925;48.122;11.560;2024-01-25T03:27:11;6.80;;;0.63;;
23496;SDS011;11925;48.122;11.560;2024-01-25T03:29:42;6.68;;;1.00;;
23496;SDS011;11925;48.122;11.560;2024-01-25T03:32:11;5.72;;;1.00;;
23496;SDS011;11925;48.122;11.560;2024-01-25T03:34:39;8.45;;;1.05;;
23496;SDS011;11925;48.122;11.560;2024-01-25T03:37:08;5.85;;;1.05;;
23496;SDS011;11925;48.122;11.560;2024-01-25T03:39:37;6.88;;;0.95;;
23496;SDS011;11925;48.122;11.560;2024-01-25T03:42:05;9.40;;;1.30;;
23496;SDS011;11925;48.122;11.560;2024-01-25T03:44:34;4.95;;;1.10;;
23496;SDS011;11925;48.122;11.560;2024-01-25T03:47:04;5.18;;;0.90;;
23496;SDS011;11925;48.122;11.560;2024-01-25T03:49:32;4.75;;;0.98;;
23496;SDS011;11925;48.122;11.560;2024-01-25T03:52:00;6.60;;;1.25;;
23496;SDS011;11925;48.122;11.560;2024-01-25T03:54:29;6.50;;;1.35;;
23496;SDS011;11925;48.122;11.560;2024-01-25T03:56:58;8.88;;;1.42;;
23496;SDS011;11925;48.122;11.560;2024-01-25T03:59:26;4.07;;;1.23;;
23496;SDS011;11925;48.122;11.560;2024-01-25T04:01:55;5.35;;;1.35;;
23496;SDS011;11925;48.122;11.560;2024-01-25T04:04:25;6.50;;;1.20;;
23496;SDS011;11925;48.122;11.560;2024-01-25T04:06:53;9.15;;;1.55;;
23496;SDS011;11925;48.122;11.560;2024-01-25T04:09:22;5.97;;;0.80;;
23496;SDS011;11925;48.122;11.560;2024-01-25T04:11:50;5.05;;;1.00;;
23496;SDS011;11925;48.122;11.560;2024-01-25T04:14:19;5.25;;;1.33;;
23496;SDS011;11925;48.122;11.560;2024-01-25T04:16:47;6.53;;;0.75;;
23496;SDS011;11925;48.122;11.560;2024-01-25T04:19:16;4.97;;;0.82;;
23496;SDS011;11925;48.122;11.560;2024-01-25T04:21:46;5.57;;;1.00;;
23496;SDS011;11925;48.122;11.560;2024-01-25T04:24:15;3.55;;;1.00;;
23496;SDS011;11925;48.122;11.560;2024-01-25T04:26:44;5.15;;;1.00;;
23496;SDS011;11925;48.122;11.560;2024-01-25T04:29:13;5.53;;;1.08;;
23496;SDS011;11925;48.122;11.560;2024-01-25T04:31:44;6.13;;;1.10;;
23496;SDS011;11925;48.122;11.560;2024-01-25T04:34:15;5.90;;;1.70;;
23496;SDS011;11925;48.122;11.560;2024-01-25T04:36:43;5.97;;;0.90;;
23496;SDS011;11925;48.122;11.560;2024-01-25T04:39:13;7.50;;;0.90;;
23496;SDS011;11925;48.122;11.560;2024-01-25T04:41:42;5.03;;;1.13;;
23496;SDS011;11925;48.122;11.560;2024-01-25T04:44:10;8.27;;;1.02;;
23496;SDS011;11925;48.122;11.560;2024-01-25T04:46:40;6.07;;;1.00;;
23496;SDS011;11925;48.122;11.560;2024-01-25T04:49:09;5.13;;;1.00;;
23496;SDS011;11925;48.122;11.560;2024-01-25T04:51:37;8.02;;;1.40;;
23496;SDS011;11925;48.122;11.560;2024-01-25T04:54:06;4.57;;;1.13;;
23496;SDS011;11925;48.122;11.560;2024-01-25T04:56:40;6.72;;;1.13;;
23496;SDS011;11925;48.122;11.560;2024-01-25T04:59:09;8.50;;;1.30;;
23496;SDS011;11925;48.122;11.560;2024-01-25T05:01:37;5.43;;;0.95;;
23496;SDS011;11925;48.122;11.560;2024-01-25T05:04:06;5.25;;;0.85;;
23496;SDS011;11925;48.122;11.560;2024-01-25T05:06:35;5.75;;;1.00;;
23496;SDS011;11925;48.122;11.560;2024-01-25T05:09:03;8.90;;;1.23;;
23496;SDS011;11925;48.122;11.560;2024-01-25T05:11:37;7.35;;;1.13;;
23496;SDS011;11925;48.122;11.560;2024-01-25T05:14:07;6.70;;;1.00;;
23496;SDS011;11925;48.122;11.560;2024-01-25T05:16:36;3.90;;;1.33;;
23496;SDS011;11925;48.122;11.560;2024-01-25T05:19:04;4.20;;;1.20;;
23496;SDS011;11925;48.122;11.560;2024-01-25T05:21:33;4.60;;;0.82;;
23496;SDS011;11925;48.122;11.560;2024-01-25T05:24:02;7.72;;;1.50;;
23496;SDS011;11925;48.122;11.560;2024-01-25T05:26:30;4.70;;;0.80;;
23496;SDS011;11925;48.122;11.560;2024-01-25T05:28:59;4.90;;;0.88;;
23496;SDS011;11925;48.122;11.560;2024-01-25T05:31:28;6.78;;;0.90;;
23496;SDS011;11925;48.122;11.560;2024-01-25T05:33:57;4.18;;;0.63;;
23496;SDS011;11925;48.122;11.560;2024-01-25T05:36:26;7.47;;;1.00;;
23496;SDS011;11925;48.122;11.560;2024-01-25T05:38:54;2.75;;;0.70;;
23496;SDS011;11925;48.122;11.560;2024-01-25T05:41:23;5.65;;;0.77;;
23496;SDS011;11925;48.122;11.560;2024-01-25T05:43:51;6.38;;;0.93;;
23496;SDS011;11925;48.122;11.560;2024-01-25T05:46:21;5.40;;;1.13;;
23496;SDS011;11925;48.122;11.560;2024-01-25T05:48:51;3.80;;;0.57;;
23496;SDS011;11925;48.122;11.560;2024-01-25T05:51:19;7.57;;;0.88;;
23496;SDS011;11925;48.122;11.560;2024-01-25T05:53:48;4.93;;;0.75;;
23496;SDS011;11925;48.122;11.560;2024-01-25T05:56:16;8.00;;;1.50;;
23496;SDS011;11925;48.122;11.560;2024-01-25T05:58:44;5.68;;;1.05;;
23496;SDS011;11925;48.122;11.560;2024-01-25T06:01:13;7.88;;;1.58;;
23496;SDS011;11925;48.122;11.560;2024-01-25T06:03:41;8.10;;;1.77;;
23496;SDS011;11925;48.122;11.560;2024-01-25T06:06:11;17.20;;;3.47;;
23496;SDS011;11925;48.122;11.560;2024-01-25T06:08:40;16.70;;;4.25;;
23496;SDS011;11925;48.122;11.560;2024-01-25T06:11:17;13.70;;;2.65;;
23496;SDS011;11925;48.122;11.560;2024-01-25T06:13:45;9.70;;;1.88;;
23496;SDS011;11925;48.122;11.560;2024-01-25T06:16:14;12.13;;;1.77;;
23496;SDS011;11925;48.122;11.560;2024-01-25T06:18:42;9.50;;;1.55;;
23496;SDS011;11925;48.122;11.560;2024-01-25T06:21:12;5.43;;;1.02;;
23496;SDS011;11925;48.122;11.560;2024-01-25T06:23:41;8.32;;;1.35;;
23496;SDS011;11925;48.122;11.560;2024-01-25T06:26:09;9.23;;;2.03;;
23496;SDS011;11925;48.122;11.560;2024-01-25T06:28:38;12.85;;;3.72;;
23496;SDS011;11925;48.122;11.560;2024-01-25T06:31:07;15.05;;;4.35;;
23496;SDS011;11925;48.122;11.560;2024-01-25T06:33:38;11.15;;;3.35;;
23496;SDS011;11925;48.122;11.560;2024-01-25T06:36:07;9.95;;;2.97;;
23496;SDS011;11925;48.122;11.560;2024-01-25T06:38:37;8.10;;;1.80;;
23496;SDS011;11925;48.122;11.560;2024-01-25T06:41:05;6.20;;;1.33;;
23496;SDS011;11925;48.122;11.560;2024-01-25T06:43:34;7.78;;;1.70;;
23496;SDS011;11925;48.122;11.560;2024-01-25T06:46:03;6.28;;;1.40;;
23496;SDS011;11925;48.122;11.560;2024-01-25T06:48:33;7.28;;;1.35;;
23496;SDS011;11925;48.122;11.560;2024-01-25T06:51:02;7.05;;;1.50;;
23496;SDS011;11925;48.122;11.560;2024-01-25T06:53:31;5.90;;;1.23;;
23496;SDS011;11925;48.122;11.560;2024-01-25T06:56:01;7.65;;;1.77;;
23496;SDS011;11925;48.122;11.560;2024-01-25T06:58:30;10.20;;;1.83;;
23496;SDS011;11925;48.122;11.560;2024-01-25T07:00:59;9.43;;;1.30;;
23496;SDS011;11925;48.122;11.560;2024-01-25T07:03:28;5.43;;;1.20;;
23496;SDS011;11925;48.122;11.560;2024-01-25T07:05:56;9.90;;;1.25;;
23496;SDS011;11925;48.122;11.560;2024-01-25T07:08:25;5.75;;;1.35;;
23496;SDS011;11925;48.122;11.560;2024-01-25T07:10:53;7.75;;;1.52;;
23496;SDS011;11925;48.122;11.560;2024-01-25T07:13:24;9.35;;;1.88;;
23496;SDS011;11925;48.122;11.560;2024-01-25T07:15:53;7.25;;;1.52;;
23496;SDS011;11925;48.122;11.560;2024-01-25T07:18:21;8.15;;;2.63;;
23496;SDS011;11925;48.122;11.560;2024-01-25T07:20:51;15.93;;;2.80;;
23496;SDS011;11925;48.122;11.560;2024-01-25T07:23:20;9.45;;;2.30;;
23496;SDS011;11925;48.122;11.560;2024-01-25T07:25:49;10.68;;;2.60;;
23496;SDS011;11925;48.122;11.560;2024-01-25T07:28:18;7.95;;;2.72;;
23496;SDS011;11925;48.122;11.560;2024-01-25T07:30:48;12.93;;;2.63;;
23496;SDS011;11925;48.122;11.560;2024-01-25T07:33:17;11.52;;;2.58;;
23496;SDS011;11925;48.122;11.560;2024-01-25T07:35:46;10.73;;;2.33;;
23496;SDS011;11925;48.122;11.560;2024-01-25T07:38:14;7.72;;;1.73;;
23496;SDS011;11925;48.122;11.560;2024-01-25T07:40:43;8.05;;;1.35;;
23496;SDS011;11925;48.122;11.560;2024-01-25T07:43:11;6.38;;;1.60;;
23496;SDS011;11925;48.122;11.560;2024-01-25T07:45:40;11.75;;;2.05;;
23496;SDS011;11925;48.122;11.560;2024-01-25T07:48:10;8.30;;;1.38;;
23496;SDS011;11925;48.122;11.560;2024-01-25T07:50:41;5.85;;;1.42;;
23496;SDS011;11925;48.122;11.560;2024-01-25T07:53:10;7.85;;;1.50;;
23496;SDS011;11925;48.122;11.560;2024-01-25T07:55:39;7.18;;;1.48;;
23496;SDS011;11925;48.122;11.560;2024-01-25T07:58:07;8.30;;;1.35;;
23496;SDS011;11925;48.122;11.560;2024-01-25T08:00:36;6.90;;;1.30;;
23496;SDS011;11925;48.122;11.560;2024-01-25T08:03:04;7.85;;;1.58;;
23496;SDS011;11925;48.122;11.560;2024-01-25T08:05:34;6.65;;;1.67;;
23496;SDS011;11925;48.122;11.560;2024-01-25T08:08:13;9.35;;;1.88;;
23496;SDS011;11925;48.122;11.560;2024-01-25T08:10:42;6.13;;;1.52;;
23496;SDS011;11925;48.122;11.560;2024-01-25T08:13:12;10.75;;;2.25;;
23496;SDS011;11925;48.122;11.560;2024-01-25T08:15:41;10.27;;;1.73;;
23496;SDS011;11925;48.122;11.560;2024-01-25T08:18:09;6.63;;;1.92;;
23496;SDS011;11925;48.122;11.560;2024-01-25T08:20:39;7.97;;;1.95;;
23496;SDS011;11925;48.122;11.560;2024-01-25T08:23:10;12.40;;;2.70;;
23496;SDS011;11925;48.122;11.560;2024-01-25T08:25:40;8.30;;;2.10;;
23496;SDS011;11925;48.122;11.560;2024-01-25T08:28:09;9.40;;;2.17;;
23496;SDS011;11925;48.122;11.560;2024-01-25T08:30:37;8.70;;;1.33;;
23496;SDS011;11925;48.122;11.560;2024-01-25T08:33:06;8.43;;;1.48;;
23496;SDS011;11925;48.122;11.560;2024-01-25T08:35:34;13.82;;;1.92;;
23496;SDS011;11925;48.122;11.560;2024-01-25T08:38:05;14.55;;;1.70;;
23496;SDS011;11925;48.122;11.560;2024-01-25T08:40:33;9.52;;;2.08;;
23496;SDS011;11925;48.122;11.560;2024-01-25T08:43:02;12.95;;;1.65;;
23496;SDS011;11925;48.122;11.560;2024-01-25T08:45:32;8.95;;;1.75;;
23496;SDS011;11925;48.122;11.560;2024-01-25T08:48:00;8.02;;;1.67;;
23496;SDS011;11925;48.122;11.560;2024-01-25T08:50:29;10.25;;;1.50;;
23496;SDS011;11925;48.122;11.560;2024-01-25T08:52:58;7.45;;;2.25;;
23496;SDS011;11925;48.122;11.560;2024-01-25T08:55:28;11.15;;;1.77;;
23496;SDS011;11925;48.122;11.560;2024-01-25T08:57:56;12.05;;;2.25;;
23496;SDS011;11925;48.122;11.560;2024-01-25T09:00:25;8.10;;;1.45;;
23496;SDS011;11925;48.122;11.560;2024-01-25T09:02:53;12.57;;;1.60;;
23496;SDS011;11925;48.122;11.560;2024-01-25T09:05:22;8.88;;;1.65;;
23496;SDS011;11925;48.122;11.560;2024-01-25T09:07:51;12.30;;;2.03;;
23496;SDS011;11925;48.122;11.560;2024-01-25T09:10:20;9.40;;;1.60;;
23496;SDS011;11925;48.122;11.560;2024-01-25T09:12:51;12.00;;;3.08;;
23496;SDS011;11925;48.122;11.560;2024-01-25T09:15:19;17.10;;;7.05;;
23496;SDS011;11925;48.122;11.560;2024-01-25T09:17:48;16.52;;;6.80;;
23496;SDS011;11925;48.122;11.560;2024-01-25T09:20:16;11.63;;;4.43;;
23496;SDS011;11925;48.122;11.560;2024-01-25T09:22:45;13.98;;;3.45;;
23496;SDS011;11925;48.122;11.560;2024-01-25T09:25:14;12.55;;;2.25;;
23496;SDS011;11925;48.122;11.560;2024-01-25T09:27:42;10.52;;;2.25;;
23496;SDS011;11925;48.122;11.560;2024-01-25T09:30:13;8.60;;;1.85;;
23496;SDS011;11925;48.122;11.560;2024-01-25T09:32:42;11.25;;;2.88;;
23496;SDS011;11925;48.122;11.560;2024-01-25T09:35:14;14.85;;;2.97;;
23496;SDS011;11925;48.122;11.560;2024-01-25T09:37:43;7.78;;;1.70;;
23496;SDS011;11925;48.122;11.560;2024-01-25T09:40:11;7.35;;;2.05;;
23496;SDS011;11925;48.122;11.560;2024-01-25T09:42:40;12.63;;;1.75;;
23496;SDS011;11925;48.122;11.560;2024-01-25T09:45:09;9.98;;;1.60;;
23496;SDS011;11925;48.122;11.560;2024-01-25T09:47:44;9.75;;;2.13;;
23496;SDS011;11925;48.122;11.560;2024-01-25T09:50:13;11.05;;;2.22;;
23496;SDS011;11925;48.122;11.560;2024-01-25T09:52:42;11.50;;;2.10;;
23496;SDS011;11925;48.122;11.560;2024-01-25T09:55:12;8.73;;;1.45;;
23496;SDS011;11925;48.122;11.560;2024-01-25T09:57:45;14.80;;;2.65;;
23496;SDS011;11925;48.122;11.560;2024-01-25T10:00:16;11.75;;;2.30;;
23496;SDS011;11925;48.122;11.560;2024-01-25T10:02:47;12.75;;;2.50;;
23496;SDS011;11925;48.122;11.560;2024-01-25T10:05:16;10.13;;;2.15;;
23496;SDS011;11925;48.122;11.560;2024-01-25T10:07:45;9.70;;;2.15;;
23496;SDS011;11925;48.122;11.560;2024-01-25T10:10:14;14.43;;;2.88;;
23496;SDS011;11925;48.122;11.560;2024-01-25T10:12:43;10.32;;;1.88;;
23496;SDS011;11925;48.122;11.560;2024-01-25T10:15:11;11.20;;;1.67;;
23496;SDS011;11925;48.122;11.560;2024-01-25T10:17:41;10.18;;;1.45;;
23496;SDS011;11925;48.122;11.560;2024-01-25T10:20:14;7.15;;;2.15;;
23496;SDS011;11925;48.122;11.560;2024-01-25T10:22:44;12.45;;;2.03;;
23496;SDS011;11925;48.122;11.560;2024-01-25T10:25:13;8.82;;;2.00;;
23496;SDS011;11925;48.122;11.560;2024-01-25T10:27:42;12.02;;;1.83;;
23496;SDS011;11925;48.122;11.560;2024-01-25T10:30:11;14.40;;;2.25;;
23496;SDS011;11925;48.122;11.560;2024-01-25T10:32:43;11.95;;;1.80;;
23496;SDS011;11925;48.122;11.560;2024-01-25T10:37:46;10.73;;;1.77;;
23496;SDS011;11925;48.122;11.560;2024-01-25T10:40:15;9.63;;;2.42;;
23496;SDS011;11925;48.122;11.560;2024-01-25T10:42:46;11.88;;;2.50;;
23496;SDS011;11925;48.122;11.560;2024-01-25T10:45:15;7.93;;;1.95;;
23496;SDS011;11925;48.122;11.560;2024-01-25T10:47:45;13.32;;;1.75;;
23496;SDS011;11925;48.122;11.560;2024-01-25T10:50:16;13.13;;;2.08;;
23496;SDS011;11925;48.122;11.560;2024-01-25T10:52:45;16.27;;;2.55;;
23496;SDS011;11925;48.122;11.560;2024-01-25T10:55:14;11.45;;;1.92;;
23496;SDS011;11925;48.122;11.560;2024-01-25T10:57:44;11.15;;;2.00;;
23496;SDS011;11925;48.122;11.560;2024-01-25T11:00:15;14.38;;;2.17;;
23496;SDS011;11925;48.122;11.560;2024-01-25T11:02:45;10.48;;;1.88;;
23496;SDS011;11925;48.122;11.560;2024-01-25T11:05:17;10.02;;;1.77;;
23496;SDS011;11925;48.122;11.560;2024-01-25T11:07:48;14.75;;;2.67;;
23496;SDS011;11925;48.122;11.560;2024-01-25T11:10:18;10.18;;;2.72;;
23496;SDS011;11925;48.122;11.560;2024-01-25T11:12:50;12.50;;;2.13;;
23496;SDS011;11925;48.122;11.560;2024-01-25T11:15:22;13.93;;;2.08;;
23496;SDS011;11925;48.122;11.560;2024-01-25T11:17:59;8.55;;;1.75;;
23496;SDS011;11925;48.122;11.560;2024-01-25T11:20:30;10.48;;;2.05;;
23496;SDS011;11925;48.122;11.560;2024-01-25T11:23:00;10.70;;;1.92;;
23496;SDS011;11925;48.122;11.560;2024-01-25T11:28:00;10.20;;;2.00;;
23496;SDS011;11925;48.122;11.560;2024-01-25T11:30:29;11.35;;;2.03;;
23496;SDS011;11925;48.122;11.560;2024-01-25T11:33:03;9.73;;;2.33;;
23496;SDS011;11925;48.122;11.560;2024-01-25T11:35:33;11.48;;;2.47;;
23496;SDS011;11925;48.122;11.560;2024-01-25T11:38:02;7.57;;;1.70;;
23496;SDS011;11925;48.122;11.560;2024-01-25T11:40:31;10.77;;;2.22;;
23496;SDS011;11925;48.122;11.560;2024-01-25T11:43:04;11.27;;;2.53;;
23496;SDS011;11925;48.122;11.560;2024-01-25T11:45:38;14.32;;;2.33;;
23496;SDS011;11925;48.122;11.560;2024-01-25T11:48:11;9.10;;;2.55;;
23496;SDS011;11925;48.122;11.560;2024-01-25T11:50:40;13.05;;;2.05;;
23496;SDS011;11925;48.122;11.560;2024-01-25T11:53:09;10.18;;;1.80;;
23496;SDS011;11925;48.122;11.560;2024-01-25T11:55:38;9.52;;;1.85;;
23496;SDS011;11925;48.122;11.560;2024-01-25T11:58:06;9.98;;;1.88;;
23496;SDS011;11925;48.122;11.560;2024-01-25T12:00:35;14.00;;;2.17;;
23496;SDS011;11925;48.122;11.560;2024-01-25T12:03:04;11.23;;;1.88;;
23496;SDS011;11925;48.122;11.560;2024-01-25T12:05:34;8.60;;;2.25;;
23496;SDS011;11925;48.122;11.560;2024-01-25T12:08:07;13.77;;;2.40;;
23496;SDS011;11925;48.122;11.560;2024-01-25T12:10:36;12.98;;;2.47;;
23496;SDS011;11925;48.122;11.560;2024-01-25T12:13:05;11.60;;;1.92;;
23496;SDS011;11925;48.122;11.560;2024-01-25T12:15:35;11.93;;;2.17;;
23496;SDS011;11925;48.122;11.560;2024-01-25T12:18:05;7.20;;;1.92;;
23496;SDS011;11925;48.122;11.560;2024-01-25T12:20:36;10.77;;;2.10;;
23496;SDS011;11925;48.122;11.560;2024-01-25T12:23:05;9.52;;;2.35;;
23496;SDS011;11925;48.122;11.560;2024-01-25T12:25:38;7.00;;;1.60;;
23496;SDS011;11925;48.122;11.560;2024-01-25T12:28:09;8.65;;;1.88;;
23496;SDS011;11925;48.122;11.560;2024-01-25T12:30:37;16.27;;;2.25;;
23496;SDS011;11925;48.122;11.560;2024-01-25T12:33:06;10.40;;;1.80;;
23496;SDS011;11925;48.122;11.560;2024-01-25T12:35:36;8.75;;;1.63;;
23496;SDS011;11925;48.122;11.560;2024-01-25T12:38:06;7.63;;;1.60;;
23496;SDS011;11925;48.122;11.560;2024-01-25T12:40:35;9.55;;;1.70;;
23496;SDS011;11925;48.122;11.560;2024-01-25T12:43:04;8.88;;;2.05;;
23496;SDS011;11925;48.122;11.560;2024-01-25T12:45:33;10.15;;;1.45;;
23496;SDS011;11925;48.122;11.560;2024-01-25T12:48:02;7.75;;;1.65;;
23496;SDS011;11925;48.122;11.560;2024-01-25T12:50:33;8.82;;;2.15;;
23496;SDS011;11925;48.122;11.560;2024-01-25T12:53:03;8.27;;;1.48;;
23496;SDS011;11925;48.122;11.560;2024-01-25T12:55:33;8.73;;;1.60;;
23496;SDS011;11925;48.122;11.560;2024-01-25T12:58:02;6.95;;;1.52;;
23496;SDS011;11925;48.122;11.560;2024-01-25T13:00:31;7.18;;;1.83;;
23496;SDS011;11925;48.122;11.560;2024-01-25T13:03:00;5.88;;;1.42;;
23496;SDS011;11925;48.122;11.560;2024-01-25T13:05:31;6.70;;;1.37;;
23496;SDS011;11925;48.122;11.560;2024-01-25T13:08:03;7.43;;;1.60;;
23496;SDS011;11925;48.122;11.560;2024-01-25T13:10:32;9.48;;;1.70;;
23496;SDS011;11925;48.122;11.560;2024-01-25T13:13:00;5.80;;;1.58;;
23496;SDS011;11925;48.122;11.560;2024-01-25T13:15:29;9.80;;;1.60;;
23496;SDS011;11925;48.122;11.560;2024-01-25T13:17:57;5.88;;;1.15;;
23496;SDS011;11925;48.122;11.560;2024-01-25T13:20:27;12.25;;;1.73;;
23496;SDS011;11925;48.122;11.560;2024-01-25T13:22:56;7.07;;;1.40;;
23496;SDS011;11925;48.122;11.560;2024-01-25T13:25:26;6.30;;;1.48;;
23496;SDS011;11925;48.122;11.560;2024-01-25T13:27:54;7.22;;;1.52;;
23496;SDS011;11925;48.122;11.560;2024-01-25T13:30:23;7.43;;;1.40;;
23496;SDS011;11925;48.122;11.560;2024-01-25T13:32:51;6.85;;;1.20;;
23496;SDS011;11925;48.122;11.560;2024-01-25T13:35:20;7.38;;;1.13;;
23496;SDS011;11925;48.122;11.560;2024-01-25T13:37:48;9.50;;;1.27;;
23496;SDS011;11925;48.122;11.560;2024-01-25T13:40:17;8.45;;;1.55;;
23496;SDS011;11925;48.122;11.560;2024-01-25T13:42:48;6.30;;;1.73;;
23496;SDS011;11925;48.122;11.560;2024-01-25T13:45:17;5.75;;;1.17;;
23496;SDS011;11925;48.122;11.560;2024-01-25T13:47:46;6.47;;;1.02;;
23496;SDS011;11925;48.122;11.560;2024-01-25T13:50:14;5.40;;;1.08;;
23496;SDS011;11925;48.122;11.560;2024-01-25T13:52:43;5.13;;;1.17;;
23496;SDS011;11925;48.122;11.560;2024-01-25T13:55:11;10.60;;;1.10;;
23496;SDS011;11925;48.122;11.560;2024-01-25T13:57:40;6.57;;;1.40;;
23496;SDS011;11925;48.122;11.560;2024-01-25T14:00:11;9.02;;;1.42;;
23496;SDS011;11925;48.122;11.560;2024-01-25T14:02:40;4.68;;;1.33;;
23496;SDS011;11925;48.122;11.560;2024-01-25T14:05:11;4.38;;;1.10;;
23496;SDS011;11925;48.122;11.560;2024-01-25T14:07:40;6.72;;;1.63;;
23496;SDS011;11925;48.122;11.560;2024-01-25T14:10:09;6.93;;;1.27;;
23496;SDS011;11925;48.122;11.560;2024-01-25T14:12:38;6.55;;;0.90;;
23496;SDS011;11925;48.122;11.560;2024-01-25T14:15:07;7.55;;;1.05;;
23496;SDS011;11925;48.122;11.560;2024-01-25T14:17:37;9.57;;;1.50;;
23496;SDS011;11925;48.122;11.560;2024-01-25T14:20:06;5.82;;;1.48;;
23496;SDS011;11925;48.122;11.560;2024-01-25T14:22:35;6.97;;;1.67;;
23496;SDS011;11925;48.122;11.560;2024-01-25T14:25:04;7.05;;;1.55;;
23496;SDS011;11925;48.122;11.560;2024-01-25T14:27:33;7.70;;;1.63;;
23496;SDS011;11925;48.122;11.560;2024-01-25T14:30:02;8.82;;;1.83;;
23496;SDS011;11925;48.122;11.560;2024-01-25T14:32:33;8.10;;;2.10;;
23496;SDS011;11925;48.122;11.560;2024-01-25T14:35:05;7.35;;;1.73;;
23496;SDS011;11925;48.122;11.560;2024-01-25T14:37:34;9.32;;;1.80;;
23496;SDS011;11925;48.122;11.560;2024-01-25T14:40:03;6.45;;;1.80;;
23496;SDS011;11925;48.122;11.560;2024-01-25T14:42:52;9.68;;;2.08;;
23496;SDS011;11925;48.122;11.560;2024-01-25T14:45:21;6.68;;;1.77;;
23496;SDS011;11925;48.122;11.560;2024-01-25T14:47:49;7.35;;;1.70;;